createdAt,value
2023-01-11T00:01:30.815Z,3.43
2023-01-11T00:03:58.976Z,4.47
2023-01-11T00:06:25.812Z,4.68
2023-01-11T00:08:55.785Z,3.67
2023-01-11T00:11:23.213Z,4.70
2023-01-11T00:13:51.691Z,2.67
2023-01-11T00:16:19.814Z,3.17
2023-01-11T00:18:46.643Z,3.25
2023-01-11T00:21:14.511Z,3.28
2023-01-11T00:23:41.283Z,5.10
2023-01-11T00:26:13.175Z,4.23
2023-01-11T00:28:41.684Z,2.53
2023-01-11T00:31:09.234Z,3.20
2023-01-11T00:33:36.062Z,3.92
2023-01-11T00:36:03.090Z,4.57
2023-01-11T00:38:31.931Z,3.80
2023-01-11T00:40:58.752Z,3.17
2023-01-11T00:43:25.495Z,2.92
2023-01-11T00:45:52.308Z,2.08
2023-01-11T00:48:19.415Z,4.13
2023-01-11T00:50:47.265Z,3.70
2023-01-11T00:53:14.052Z,4.22
2023-01-11T00:55:43.807Z,5.30
2023-01-11T00:58:11.159Z,3.97
2023-01-11T01:00:38.451Z,4.75
2023-01-11T01:03:06.320Z,5.27
2023-01-11T01:05:33.053Z,3.00
2023-01-11T01:08:01.103Z,3.13
2023-01-11T01:10:31.758Z,5.38
2023-01-11T01:13:00.112Z,4.10
2023-01-11T01:15:26.944Z,3.77
2023-01-11T01:17:55.241Z,6.30
2023-01-11T01:20:23.654Z,4.90
2023-01-11T01:22:50.589Z,4.72
2023-01-11T01:25:18.637Z,4.43
2023-01-11T01:27:45.386Z,4.53
2023-01-11T01:30:14.358Z,6.03
2023-01-11T01:32:41.184Z,3.38
2023-01-11T01:35:09.611Z,3.95
2023-01-11T01:37:37.681Z,4.53
2023-01-11T01:40:05.261Z,4.77
2023-01-11T01:42:32.107Z,5.00
2023-01-11T01:45:25.670Z,4.72
2023-01-11T01:48:00.473Z,6.68
2023-01-11T01:50:37.888Z,3.35
2023-01-11T01:53:14.365Z,3.43
2023-01-11T01:59:10.438Z,3.45
2023-01-11T02:01:39.415Z,4.18
2023-01-11T02:04:11.848Z,3.83
2023-01-11T02:06:41.639Z,2.30
2023-01-11T02:09:23.763Z,2.83
2023-01-11T02:11:53.949Z,4.63
2023-01-11T02:14:21.628Z,5.43
2023-01-11T02:16:51.736Z,5.55
2023-01-11T02:19:35.664Z,6.70
2023-01-11T02:22:25.811Z,6.65
2023-01-11T02:25:10.976Z,5.68
2023-01-11T02:28:02.786Z,3.47
2023-01-11T02:30:57.689Z,4.35
2023-01-11T02:33:54.852Z,6.77
2023-01-11T02:36:41.237Z,5.70
2023-01-11T02:39:45.781Z,5.13
2023-01-11T02:42:37.363Z,6.30
2023-01-11T02:45:16.794Z,4.57
2023-01-11T02:48:22.352Z,3.60
2023-01-11T02:51:05.675Z,5.38
2023-01-11T02:53:48.059Z,4.60
2023-01-11T02:56:21.138Z,5.72
2023-01-11T02:58:51.387Z,5.15
2023-01-11T03:01:19.642Z,6.13
2023-01-11T03:03:47.771Z,4.07
2023-01-11T03:06:21.070Z,5.47
2023-01-11T03:09:10.672Z,5.15
2023-01-11T03:11:55.806Z,6.40
2023-01-11T03:18:41.782Z,6.15
2023-01-11T03:21:28.519Z,4.60
2023-01-11T03:24:26.502Z,4.03
2023-01-11T03:27:17.727Z,4.35
2023-01-11T03:30:11.858Z,6.90
2023-01-11T03:32:48.517Z,5.13
2023-01-11T03:41:43.610Z,6.68
2023-01-11T03:44:16.958Z,4.30
2023-01-11T03:46:51.783Z,3.65
2023-01-11T03:49:25.658Z,5.22
2023-01-11T03:51:55.725Z,3.75
2023-01-11T03:54:26.450Z,5.65
2023-01-11T03:57:10.636Z,4.37
2023-01-11T03:59:39.413Z,4.57
2023-01-11T04:02:19.079Z,6.65
2023-01-11T04:04:46.617Z,5.25
2023-01-11T04:07:15.229Z,3.90
2023-01-11T04:09:42.782Z,6.40
2023-01-11T04:12:11.385Z,4.32
2023-01-11T04:14:41.793Z,6.32
2023-01-11T04:17:10.183Z,6.50
2023-01-11T04:20:01.897Z,7.88
2023-01-11T04:22:29.803Z,6.90
2023-01-11T04:24:56.443Z,6.43
2023-01-11T04:27:23.811Z,6.97
2023-01-11T04:29:50.541Z,5.47
2023-01-11T04:32:17.712Z,3.58
2023-01-11T04:34:45.216Z,6.00
2023-01-11T04:37:12.164Z,7.03
2023-01-11T04:39:39.062Z,4.80
2023-01-11T04:42:06.838Z,5.05
2023-01-11T04:44:34.218Z,5.68
2023-01-11T04:47:00.942Z,9.07
2023-01-11T04:49:28.284Z,6.75
2023-01-11T04:51:56.018Z,3.97
2023-01-11T04:54:24.817Z,5.43
2023-01-11T04:56:51.675Z,5.35
2023-01-11T04:59:18.418Z,5.33
2023-01-11T05:01:45.603Z,5.50
2023-01-11T05:04:13.593Z,5.82
2023-01-11T05:06:42.289Z,6.78
2023-01-11T05:09:15.963Z,6.85
2023-01-11T05:11:45.928Z,5.83
2023-01-11T05:14:13.570Z,6.60
2023-01-11T05:16:41.259Z,6.80
2023-01-11T05:19:11.822Z,7.28
2023-01-11T05:21:41.342Z,5.50
2023-01-11T05:24:12.979Z,7.40
2023-01-11T05:26:42.435Z,8.45
2023-01-11T05:29:16.833Z,7.13
2023-01-11T05:31:43.888Z,4.63
2023-01-11T05:34:12.999Z,6.95
2023-01-11T05:36:42.456Z,5.97
2023-01-11T05:39:10.681Z,4.53
2023-01-11T05:41:37.618Z,7.60
2023-01-11T05:44:04.831Z,6.13
2023-01-11T05:46:33.503Z,4.78
2023-01-11T05:49:01.975Z,9.57
2023-01-11T05:51:53.936Z,7.75
2023-01-11T05:54:23.009Z,7.00
2023-01-11T05:56:49.756Z,7.05
2023-01-11T05:59:16.573Z,10.25
2023-01-11T06:01:43.555Z,8.53
2023-01-11T06:04:11.310Z,9.07
2023-01-11T06:09:31.462Z,7.20
2023-01-11T06:11:58.231Z,6.40
2023-01-11T06:14:25.094Z,11.53
2023-01-11T06:22:59.977Z,11.30
2023-01-11T06:25:28.266Z,6.93
2023-01-11T06:27:59.679Z,6.40
2023-01-11T06:30:28.178Z,6.93
2023-01-11T06:32:55.034Z,10.35
2023-01-11T06:35:22.281Z,8.73
2023-01-11T06:37:50.888Z,9.25
2023-01-11T06:40:17.726Z,8.00
2023-01-11T06:42:46.278Z,10.15
2023-01-11T06:45:15.945Z,6.15
2023-01-11T06:47:42.780Z,7.18
2023-01-11T06:50:10.307Z,7.28
2023-01-11T06:52:37.938Z,9.33
2023-01-11T06:55:05.335Z,8.20
2023-01-11T06:57:32.057Z,9.73
2023-01-11T06:59:58.959Z,9.35
2023-01-11T07:02:25.735Z,6.78
2023-01-11T07:04:56.296Z,7.77
2023-01-11T07:07:23.134Z,6.18
2023-01-11T07:09:49.917Z,6.75
2023-01-11T07:12:16.627Z,8.27
2023-01-11T07:17:36.550Z,9.57
2023-01-11T07:20:04.669Z,8.23
2023-01-11T07:22:34.816Z,8.13
2023-01-11T07:25:03.861Z,9.02
2023-01-11T07:27:30.775Z,9.98
2023-01-11T07:29:57.713Z,8.33
2023-01-11T07:32:24.990Z,9.18
2023-01-11T07:34:51.685Z,10.57
2023-01-11T07:37:28.346Z,7.05
2023-01-11T07:39:56.178Z,9.43
2023-01-11T07:42:22.950Z,9.00
2023-01-11T07:44:50.409Z,13.15
2023-01-11T07:47:17.179Z,7.63
2023-01-11T07:52:30.536Z,8.32
2023-01-11T07:54:57.253Z,11.13
2023-01-11T07:57:25.369Z,10.02
2023-01-11T07:59:52.177Z,11.40
2023-01-11T08:02:43.710Z,11.73
2023-01-11T08:05:10.762Z,9.18
2023-01-11T08:07:37.501Z,7.77
2023-01-11T08:10:09.171Z,9.05
2023-01-11T08:12:51.664Z,10.25
2023-01-11T08:15:18.583Z,9.77
2023-01-11T08:17:45.374Z,8.15
2023-01-11T08:20:13.412Z,8.13
2023-01-11T08:22:40.286Z,5.95
2023-01-11T08:25:07.965Z,8.38
2023-01-11T08:27:35.411Z,8.82
2023-01-11T08:30:02.123Z,8.35
2023-01-11T08:32:30.031Z,10.37
2023-01-11T08:34:56.783Z,8.35
2023-01-11T08:37:25.055Z,8.38
2023-01-11T08:39:51.826Z,10.35
2023-01-11T08:42:20.407Z,10.75
2023-01-11T08:44:47.929Z,6.83
2023-01-11T08:47:15.396Z,10.25
2023-01-11T08:49:43.019Z,8.60
2023-01-11T08:52:13.841Z,9.52
2023-01-11T08:54:41.868Z,9.75
2023-01-11T08:57:09.072Z,9.90
2023-01-11T08:59:37.333Z,9.25
2023-01-11T09:02:05.953Z,9.63
2023-01-11T09:04:32.972Z,8.52
2023-01-11T09:07:00.361Z,8.43
2023-01-11T09:09:51.875Z,9.37
2023-01-11T09:12:22.298Z,7.20
2023-01-11T09:14:49.366Z,6.95
2023-01-11T09:17:16.953Z,6.85
2023-01-11T09:19:44.182Z,7.18
2023-01-11T09:22:11.908Z,12.20
2023-01-11T09:24:38.759Z,9.00
2023-01-11T09:27:05.639Z,10.23
2023-01-11T09:29:34.968Z,10.23
2023-01-11T09:32:03.386Z,8.35
2023-01-11T09:34:30.088Z,8.70
2023-01-11T09:36:57.938Z,6.45
2023-01-11T09:39:24.744Z,6.03
2023-01-11T09:42:22.889Z,10.40
2023-01-11T09:44:56.166Z,7.22
2023-01-11T09:47:29.299Z,9.97
2023-01-11T09:50:00.443Z,9.02
2023-01-11T09:52:35.895Z,7.68
2023-01-11T09:55:04.119Z,5.40
2023-01-11T09:57:58.019Z,6.13
2023-01-11T10:00:50.721Z,6.53
2023-01-11T10:03:51.896Z,4.43
2023-01-11T10:06:32.786Z,7.03
2023-01-11T10:18:29.666Z,6.20
2023-01-11T10:24:29.799Z,7.32
2023-01-11T10:27:04.941Z,3.88
2023-01-11T10:29:40.569Z,3.67
2023-01-11T10:32:33.848Z,4.22
2023-01-11T10:35:36.912Z,4.13
2023-01-11T10:38:10.863Z,3.75
2023-01-11T10:40:48.506Z,6.03
2023-01-11T10:43:19.912Z,5.17
2023-01-11T10:45:54.333Z,8.85
2023-01-11T10:48:40.881Z,4.68
2023-01-11T10:51:19.637Z,3.55
2023-01-11T10:53:59.012Z,6.22
2023-01-11T10:57:08.042Z,4.87
2023-01-11T11:00:01.759Z,8.00
2023-01-11T11:02:49.850Z,3.50
2023-01-11T11:05:44.748Z,3.38
2023-01-11T11:08:18.409Z,4.88
2023-01-11T11:11:05.593Z,4.50
2023-01-11T11:14:01.100Z,2.05
2023-01-11T11:16:44.945Z,4.68
2023-01-11T11:19:17.129Z,4.18
2023-01-11T11:21:44.914Z,4.93
2023-01-11T11:24:21.409Z,3.77
2023-01-11T11:26:55.894Z,4.70
2023-01-11T11:29:26.330Z,5.07
2023-01-11T11:31:53.423Z,6.20
2023-01-11T11:34:22.242Z,7.75
2023-01-11T11:36:53.030Z,5.83
2023-01-11T11:39:29.715Z,3.15
2023-01-11T11:45:14.619Z,8.23
2023-01-11T11:47:42.464Z,7.60
2023-01-11T11:50:43.265Z,3.80
2023-01-11T11:53:22.380Z,5.70
2023-01-11T11:55:53.001Z,6.25
2023-01-11T11:58:23.980Z,3.50
2023-01-11T12:01:36.901Z,2.92
2023-01-11T12:04:14.207Z,3.50
2023-01-11T12:06:42.928Z,5.88
2023-01-11T12:09:38.178Z,5.47
2023-01-11T12:12:20.792Z,3.03
2023-01-11T12:15:16.119Z,4.47
2023-01-11T12:17:43.959Z,5.13
2023-01-11T12:20:22.688Z,3.30
2023-01-11T12:23:21.609Z,3.25
2023-01-11T12:25:57.472Z,5.45
2023-01-11T12:28:39.568Z,7.35
2023-01-11T12:31:21.094Z,6.07
2023-01-11T12:34:39.357Z,4.55
2023-01-11T12:37:12.255Z,3.97
2023-01-11T12:39:52.188Z,5.45
2023-01-11T12:42:25.464Z,3.50
2023-01-11T12:45:03.549Z,5.57
2023-01-11T12:47:42.325Z,5.90
2023-01-11T12:50:25.585Z,4.63
2023-01-11T12:53:34.879Z,3.90
2023-01-11T12:56:28.048Z,3.10
2023-01-11T12:59:20.547Z,3.40
2023-01-11T13:05:37.549Z,4.35
2023-01-11T13:08:30.863Z,3.20
2023-01-11T13:14:42.888Z,5.60
2023-01-11T13:17:10.281Z,6.55
2023-01-11T13:19:43.915Z,4.95
2023-01-11T13:22:18.014Z,5.10
2023-01-11T13:24:50.888Z,5.38
2023-01-11T13:27:22.295Z,2.90
2023-01-11T13:29:53.898Z,5.60
2023-01-11T13:32:28.361Z,4.95
2023-01-11T13:35:20.046Z,3.55
2023-01-11T13:38:15.688Z,4.65
2023-01-11T13:44:06.430Z,4.00
2023-01-11T13:47:09.579Z,3.63
2023-01-11T13:49:51.015Z,5.97
2023-01-11T13:52:39.340Z,6.80
2023-01-11T13:55:25.105Z,4.70
2023-01-11T13:57:59.604Z,3.22
2023-01-11T14:00:38.225Z,2.92
2023-01-11T14:03:37.721Z,3.90
2023-01-11T14:06:35.211Z,2.92
2023-01-11T14:09:20.638Z,7.00
2023-01-11T14:12:05.666Z,3.13
2023-01-11T14:14:38.474Z,3.25
2023-01-11T14:17:05.151Z,4.82
2023-01-11T14:20:01.515Z,4.15
2023-01-11T14:22:37.463Z,6.63
2023-01-11T14:25:14.159Z,3.67
2023-01-11T14:28:08.613Z,4.07
2023-01-11T14:30:41.216Z,5.47
2023-01-11T14:33:26.586Z,4.30
2023-01-11T14:36:23.934Z,5.00
2023-01-11T14:39:19.667Z,6.45
2023-01-11T14:41:55.415Z,6.88
2023-01-11T14:44:59.612Z,5.35
2023-01-11T14:47:52.343Z,7.65
2023-01-11T14:50:43.521Z,4.93
2023-01-11T14:53:19.138Z,8.07
2023-01-11T14:55:46.387Z,5.82
2023-01-11T15:01:26.008Z,8.10
2023-01-11T15:03:56.141Z,7.00
2023-01-11T15:06:25.021Z,5.75
2023-01-11T15:08:55.849Z,6.82
2023-01-11T15:11:40.276Z,4.32
2023-01-11T15:14:36.815Z,4.53
2023-01-11T15:17:04.940Z,4.50
2023-01-11T15:19:35.591Z,5.88
2023-01-11T15:22:08.955Z,4.47
2023-01-11T15:24:41.820Z,8.68
2023-01-11T15:27:28.058Z,13.40
2023-01-11T15:29:58.034Z,12.83
2023-01-11T15:32:35.065Z,7.97
2023-01-11T15:35:23.243Z,8.50
2023-01-11T15:38:14.322Z,8.48
2023-01-11T15:40:43.309Z,4.68
2023-01-11T15:43:37.887Z,7.13
2023-01-11T15:46:33.832Z,7.70
2023-01-11T15:49:34.929Z,5.20
2023-01-11T15:52:05.244Z,6.38
2023-01-11T15:54:35.435Z,7.95
2023-01-11T15:57:39.027Z,6.27
2023-01-11T16:00:31.980Z,8.07
2023-01-11T16:03:18.768Z,11.13
2023-01-11T16:06:27.107Z,6.10
2023-01-11T16:09:15.405Z,6.57
2023-01-11T16:12:15.799Z,8.03
2023-01-11T16:15:10.623Z,3.90
2023-01-11T16:17:41.393Z,3.22
2023-01-11T16:20:20.187Z,4.45
2023-01-11T16:22:53.611Z,7.72
2023-01-11T16:25:23.460Z,4.03
2023-01-11T16:27:55.915Z,4.65
2023-01-11T16:30:23.130Z,5.40
2023-01-11T16:32:50.218Z,6.45
2023-01-11T16:35:26.050Z,6.78
2023-01-11T16:38:25.931Z,7.87
2023-01-11T16:41:18.747Z,6.00
2023-01-11T16:46:46.641Z,6.65
2023-01-11T16:49:18.381Z,7.85
2023-01-11T16:52:35.056Z,5.13
2023-01-11T16:55:11.029Z,4.13
2023-01-11T16:57:43.948Z,5.80
2023-01-11T17:00:25.528Z,6.18
2023-01-11T17:03:16.516Z,5.15
2023-01-11T17:06:14.956Z,3.43
2023-01-11T17:08:47.912Z,3.97
2023-01-11T17:11:41.732Z,4.55
2023-01-11T17:14:28.047Z,4.13
2023-01-11T17:17:00.192Z,3.08
2023-01-11T17:19:31.276Z,4.03
2023-01-11T17:22:06.469Z,3.88
2023-01-11T17:24:48.102Z,4.28
2023-01-11T17:27:22.576Z,3.25
2023-01-11T17:29:53.890Z,3.63
2023-01-11T17:32:45.597Z,3.57
2023-01-11T17:35:19.055Z,4.63
2023-01-11T17:37:48.623Z,4.03
2023-01-11T17:40:36.858Z,3.85
2023-01-11T17:43:22.603Z,7.70
2023-01-11T17:45:50.478Z,4.97
2023-01-11T17:48:17.441Z,6.25
2023-01-11T17:50:53.571Z,7.63
2023-01-11T17:53:32.467Z,6.45
2023-01-11T17:56:03.864Z,6.80
2023-01-11T17:58:32.854Z,5.43
2023-01-11T18:01:08.979Z,8.05
2023-01-11T18:03:54.506Z,8.38
2023-01-11T18:06:39.936Z,9.55
2023-01-11T18:09:19.591Z,8.88
2023-01-11T18:11:52.594Z,9.27
2023-01-11T18:14:30.348Z,10.52
2023-01-11T18:17:01.276Z,10.15
2023-01-11T18:19:35.608Z,11.88
2023-01-11T18:22:04.946Z,12.50
2023-01-11T18:24:34.338Z,8.83
2023-01-11T18:27:18.080Z,12.57
2023-01-11T18:30:32.977Z,14.85
2023-01-11T18:33:11.901Z,11.43
2023-01-11T18:35:44.356Z,8.95
2023-01-11T18:38:23.317Z,10.43
2023-01-11T18:40:53.475Z,10.00
2023-01-11T18:43:29.426Z,7.68
2023-01-11T18:45:56.804Z,13.07
2023-01-11T18:48:25.504Z,11.02
2023-01-11T18:53:44.712Z,10.18
2023-01-11T18:56:11.675Z,9.65
2023-01-11T18:58:38.988Z,9.30
2023-01-11T19:01:14.088Z,8.13
2023-01-11T19:03:43.671Z,8.37
2023-01-11T19:06:15.704Z,9.60
2023-01-11T19:08:43.382Z,8.65
2023-01-11T19:11:11.872Z,4.82
2023-01-11T19:13:38.987Z,5.88
2023-01-11T19:16:08.560Z,7.47
2023-01-11T19:18:35.835Z,7.78
2023-01-11T19:21:04.834Z,8.20
2023-01-11T19:23:33.055Z,5.78
2023-01-11T19:26:02.806Z,6.47
2023-01-11T19:28:31.644Z,5.53
2023-01-11T19:30:59.003Z,6.43
2023-01-11T19:33:26.326Z,6.38
2023-01-11T19:35:53.688Z,5.88
2023-01-11T19:38:20.754Z,7.32
2023-01-11T19:40:50.444Z,7.87
2023-01-11T19:43:17.933Z,7.63
2023-01-11T19:45:45.359Z,15.25
2023-01-11T19:48:12.255Z,14.05
2023-01-11T19:50:39.237Z,14.32
2023-01-11T19:53:06.225Z,14.17
2023-01-11T19:55:33.040Z,15.82
2023-01-11T19:58:00.503Z,11.95
2023-01-11T20:00:29.743Z,13.98
2023-01-11T20:02:58.449Z,16.40
2023-01-11T20:05:25.428Z,15.00
2023-01-11T20:07:52.357Z,12.07
2023-01-11T20:10:19.532Z,13.68
2023-01-11T20:12:47.860Z,12.75
2023-01-11T20:15:15.550Z,15.40
2023-01-11T20:17:42.810Z,12.13
2023-01-11T20:20:10.855Z,12.57
2023-01-11T20:22:37.807Z,15.65
2023-01-11T20:25:05.676Z,13.02
2023-01-11T20:27:32.944Z,12.98
2023-01-11T20:30:01.694Z,14.83
2023-01-11T20:32:41.057Z,14.77
2023-01-11T20:35:11.939Z,14.43
2023-01-11T20:37:39.370Z,12.52
2023-01-11T20:40:07.387Z,14.13
2023-01-11T20:42:35.606Z,13.90
2023-01-11T20:45:04.523Z,14.65
2023-01-11T20:47:32.564Z,11.73
2023-01-11T20:49:59.480Z,12.57
2023-01-11T20:52:26.655Z,10.77
2023-01-11T20:54:54.076Z,12.50
2023-01-11T20:57:22.009Z,11.98
2023-01-11T20:59:49.449Z,14.40
2023-01-11T21:02:16.185Z,12.18
2023-01-11T21:04:46.891Z,11.02
2023-01-11T21:07:17.447Z,11.87
2023-01-11T21:09:44.356Z,12.20
2023-01-11T21:12:11.400Z,14.68
2023-01-11T21:14:38.110Z,11.77
2023-01-11T21:17:05.924Z,11.57
2023-01-11T21:19:36.340Z,3.40
2023-01-11T21:22:03.202Z,2.40
2023-01-11T21:24:30.429Z,1.73
2023-01-11T21:26:57.594Z,1.60
2023-01-11T21:29:25.381Z,2.17
2023-01-11T21:31:52.376Z,2.13
2023-01-11T21:34:20.897Z,2.05
2023-01-11T21:36:48.513Z,2.58
2023-01-11T21:39:17.015Z,3.45
2023-01-11T21:41:47.966Z,2.45
2023-01-11T21:44:16.445Z,4.97
2023-01-11T21:46:45.003Z,2.03
2023-01-11T21:49:13.911Z,1.95
2023-01-11T21:51:42.009Z,3.33
2023-01-11T21:54:12.859Z,2.10
2023-01-11T21:56:40.308Z,2.80
2023-01-11T21:59:09.012Z,2.28
2023-01-11T22:01:36.063Z,2.83
2023-01-11T22:04:07.623Z,2.45
2023-01-11T22:06:40.094Z,3.03
2023-01-11T22:09:09.616Z,3.10
2023-01-11T22:11:37.867Z,3.13
2023-01-11T22:14:05.726Z,2.90
2023-01-11T22:16:33.528Z,2.80
2023-01-11T22:19:01.681Z,2.65
2023-01-11T22:21:30.898Z,3.00
2023-01-11T22:23:58.890Z,2.15
2023-01-11T22:26:54.981Z,3.05
2023-01-11T22:29:25.386Z,2.70
2023-01-11T22:31:53.563Z,2.47
2023-01-11T22:34:22.364Z,2.70
2023-01-11T22:37:15.050Z,2.80
2023-01-11T22:39:42.787Z,2.63
2023-01-11T22:42:09.559Z,2.85
2023-01-11T22:45:03.095Z,3.05
2023-01-11T22:47:54.983Z,2.07
2023-01-11T22:50:23.151Z,2.72
2023-01-11T22:52:49.932Z,2.17
2023-01-11T22:55:17.327Z,2.03
2023-01-11T22:57:45.954Z,2.38
2023-01-11T23:00:13.356Z,2.27
2023-01-11T23:02:40.208Z,2.72
2023-01-11T23:05:07.958Z,2.72
2023-01-11T23:07:38.373Z,2.15
2023-01-11T23:10:05.534Z,2.28
2023-01-11T23:12:34.049Z,2.20
2023-01-11T23:15:00.824Z,2.88
2023-01-11T23:17:27.649Z,2.47
2023-01-11T23:19:54.660Z,2.20
2023-01-11T23:22:21.459Z,2.85
2023-01-11T23:24:48.294Z,2.10
2023-01-11T23:27:15.368Z,2.33
2023-01-11T23:29:42.959Z,2.00
2023-01-11T23:32:09.852Z,2.58
2023-01-11T23:34:37.909Z,4.32
2023-01-11T23:37:08.330Z,3.07
2023-01-11T23:39:38.961Z,2.20
2023-01-11T23:42:06.371Z,2.10
2023-01-11T23:44:33.535Z,2.80
2023-01-11T23:47:00.405Z,2.08
2023-01-11T23:49:29.562Z,1.73
2023-01-11T23:51:56.907Z,2.58
2023-01-11T23:54:30.913Z,2.60
2023-01-11T23:57:00.143Z,2.13
2023-01-11T23:59:27.120Z,3.20
